createdAt,value
2018-03-02T00:00:56.023Z,48.50
2018-03-02T00:03:24.496Z,49.00
2018-03-02T00:05:52.207Z,48.90
2018-03-02T00:08:19.875Z,49.40
2018-03-02T00:10:47.598Z,49.10
2018-03-02T00:13:15.264Z,48.90
2018-03-02T00:15:42.968Z,49.30
2018-03-02T00:18:10.655Z,49.50
2018-03-02T00:20:38.376Z,49.90
2018-03-02T00:23:06.083Z,49.80
2018-03-02T00:25:34.560Z,49.90
2018-03-02T00:28:02.991Z,50.20
2018-03-02T00:30:30.698Z,50.20
2018-03-02T00:32:59.142Z,50.40
2018-03-02T00:35:28.396Z,50.00
2018-03-02T00:37:56.084Z,50.40
2018-03-02T00:40:23.804Z,50.10
2018-03-02T00:42:52.238Z,50.60
2018-03-02T00:45:19.967Z,50.50
2018-03-02T00:47:47.637Z,50.80
2018-03-02T00:50:15.367Z,51.10
2018-03-02T00:52:43.867Z,51.30
2018-03-02T00:55:11.580Z,51.20
2018-03-02T00:57:39.295Z,51.40
2018-03-02T01:00:07.002Z,51.40
2018-03-02T01:02:34.671Z,51.20
2018-03-02T01:05:03.208Z,51.60
2018-03-02T01:07:30.878Z,51.60
2018-03-02T01:09:58.555Z,51.80
2018-03-02T01:12:26.319Z,52.00
2018-03-02T01:14:53.999Z,52.20
2018-03-02T01:17:22.534Z,52.50
2018-03-02T01:19:50.191Z,52.50
2018-03-02T01:22:17.919Z,52.40
2018-03-02T01:24:45.639Z,52.30
2018-03-02T01:27:13.367Z,52.60
2018-03-02T01:29:41.040Z,52.80
2018-03-02T01:32:08.767Z,53.10
2018-03-02T01:34:36.438Z,53.10
2018-03-02T01:37:04.151Z,53.10
2018-03-02T01:39:32.592Z,53.40
2018-03-02T01:42:00.303Z,53.40
2018-03-02T01:44:27.980Z,53.70
2018-03-02T01:46:55.711Z,53.60
2018-03-02T01:49:24.154Z,53.80
2018-03-02T01:51:51.876Z,53.80
2018-03-02T01:54:19.549Z,53.90
2018-03-02T01:56:47.271Z,54.20
2018-03-02T01:59:15.709Z,54.20
2018-03-02T02:01:44.191Z,54.30
2018-03-02T02:04:11.881Z,54.30
2018-03-02T02:06:40.359Z,54.70
2018-03-02T02:09:08.799Z,54.70
2018-03-02T02:11:36.509Z,54.60
2018-03-02T02:14:04.963Z,55.00
2018-03-02T02:16:32.674Z,55.00
2018-03-02T02:19:00.351Z,54.90
2018-03-02T02:21:28.059Z,55.10
2018-03-02T02:23:56.503Z,55.30
2018-03-02T02:26:24.215Z,55.30
2018-03-02T02:29:01.907Z,55.40
2018-03-02T02:31:29.623Z,55.80
2018-03-02T02:33:57.300Z,55.80
2018-03-02T02:36:25.021Z,56.50
2018-03-02T02:38:52.699Z,56.30
2018-03-02T02:41:20.408Z,56.30
2018-03-02T02:43:48.079Z,56.30
2018-03-02T02:46:15.799Z,56.50
2018-03-02T02:48:43.471Z,56.60
2018-03-02T02:51:11.963Z,56.70
2018-03-02T02:53:39.638Z,56.70
2018-03-02T02:56:07.359Z,56.70
2018-03-02T02:58:35.032Z,57.00
2018-03-02T03:01:03.574Z,57.40
2018-03-02T03:03:31.265Z,57.40
2018-03-02T03:05:59.751Z,57.60
2018-03-02T03:08:28.189Z,57.80
2018-03-02T03:10:55.899Z,57.60
2018-03-02T03:13:23.576Z,58.10
2018-03-02T03:15:51.300Z,58.00
2018-03-02T03:18:19.736Z,58.00
2018-03-02T03:20:47.454Z,57.90
2018-03-02T03:23:15.888Z,58.00
2018-03-02T03:25:43.602Z,57.90
2018-03-02T03:28:11.283Z,58.50
2018-03-02T03:30:39.059Z,58.80
2018-03-02T03:33:06.735Z,59.00
2018-03-02T03:35:34.406Z,59.00
2018-03-02T03:38:02.130Z,58.90
2018-03-02T03:40:29.810Z,59.30
2018-03-02T03:42:57.527Z,59.60
2018-03-02T03:45:25.211Z,59.90
2018-03-02T03:47:52.922Z,60.00
2018-03-02T03:50:21.354Z,60.30
2018-03-02T03:52:49.070Z,60.30
2018-03-02T03:55:17.511Z,60.50
2018-03-02T03:57:45.223Z,60.50
2018-03-02T04:00:12.911Z,60.60
2018-03-02T04:02:40.619Z,60.90
2018-03-02T04:05:09.054Z,61.30
2018-03-02T04:07:36.810Z,61.30
2018-03-02T04:10:04.488Z,61.30
2018-03-02T04:12:32.203Z,61.50
2018-03-02T04:14:59.874Z,61.70
2018-03-02T04:17:27.600Z,62.40
2018-03-02T04:19:56.034Z,62.50
2018-03-02T04:22:23.744Z,62.40
2018-03-02T04:24:52.182Z,62.90
2018-03-02T04:27:19.895Z,62.80
2018-03-02T04:29:47.590Z,63.30
2018-03-02T04:32:15.310Z,63.60
2018-03-02T04:34:42.979Z,64.20
2018-03-02T04:37:10.703Z,64.20
2018-03-02T04:39:38.375Z,64.60
2018-03-02T04:42:06.859Z,64.40
2018-03-02T04:44:35.297Z,64.70
2018-03-02T04:47:03.007Z,64.70
2018-03-02T04:49:30.674Z,64.90
2018-03-02T04:51:58.407Z,65.10
2018-03-02T04:54:26.882Z,65.30
2018-03-02T04:56:54.604Z,65.20
2018-03-02T04:59:22.276Z,65.60
2018-03-02T05:01:49.995Z,65.80
2018-03-02T05:04:17.666Z,66.10
2018-03-02T05:06:45.384Z,66.20
2018-03-02T05:09:13.823Z,66.70
2018-03-02T05:11:41.532Z,66.60
2018-03-02T05:14:09.974Z,67.00
2018-03-02T05:16:37.723Z,66.90
2018-03-02T05:19:06.154Z,67.30
2018-03-02T05:21:34.631Z,68.20
2018-03-02T05:24:02.357Z,68.20
2018-03-02T05:26:30.080Z,68.10
2018-03-02T05:28:57.757Z,68.10
2018-03-02T05:31:25.476Z,68.60
2018-03-02T05:33:53.909Z,68.70
2018-03-02T05:36:21.615Z,68.70
2018-03-02T05:38:49.270Z,68.80
2018-03-02T05:41:17.738Z,69.70
2018-03-02T05:43:46.171Z,70.10
2018-03-02T05:46:13.884Z,70.10
2018-03-02T05:48:42.318Z,70.20
2018-03-02T05:51:10.024Z,70.20
2018-03-02T05:53:38.461Z,70.80
2018-03-02T05:56:06.134Z,70.80
2018-03-02T05:58:33.846Z,71.20
2018-03-02T06:01:01.515Z,71.00
2018-03-02T06:03:29.226Z,72.00
2018-03-02T06:05:56.896Z,71.30
2018-03-02T06:08:25.371Z,71.70
2018-03-02T06:10:53.811Z,71.80
2018-03-02T06:13:21.518Z,71.90
2018-03-02T06:15:49.958Z,72.10
2018-03-02T06:18:17.678Z,72.10
2018-03-02T06:20:45.350Z,72.10
2018-03-02T06:23:13.066Z,72.30
2018-03-02T06:25:41.499Z,72.80
2018-03-02T06:28:09.207Z,72.70
2018-03-02T06:30:37.645Z,72.60
2018-03-02T06:33:05.352Z,72.60
2018-03-02T06:35:33.786Z,73.30
2018-03-02T06:38:01.498Z,73.20
2018-03-02T06:40:29.166Z,73.20
2018-03-02T06:42:56.887Z,73.80
2018-03-02T06:45:24.559Z,73.70
2018-03-02T06:47:53.040Z,73.00
2018-03-02T06:50:21.471Z,73.30
2018-03-02T06:52:49.979Z,73.50
2018-03-02T06:55:17.647Z,73.50
2018-03-02T06:57:46.115Z,73.10
2018-03-02T07:00:13.791Z,73.10
2018-03-02T07:02:42.355Z,73.10
2018-03-02T07:05:10.059Z,73.10
2018-03-02T07:07:37.771Z,72.60
2018-03-02T07:10:05.439Z,72.20
2018-03-02T07:12:33.145Z,71.60
2018-03-02T07:15:00.807Z,72.40
2018-03-02T07:17:28.510Z,73.00
2018-03-02T07:19:56.188Z,72.40
2018-03-02T07:22:24.671Z,72.40
2018-03-02T07:24:53.098Z,72.10
2018-03-02T07:27:20.828Z,72.20
2018-03-02T07:29:48.554Z,72.20
2018-03-02T07:32:16.302Z,72.40
2018-03-02T07:34:43.979Z,72.20
2018-03-02T07:37:11.700Z,72.80
2018-03-02T07:39:39.370Z,72.60
2018-03-02T07:42:07.075Z,72.10
2018-03-02T07:44:35.511Z,72.40
2018-03-02T07:47:03.224Z,72.50
2018-03-02T07:49:30.910Z,73.30
2018-03-02T07:51:58.617Z,72.00
2018-03-02T07:54:27.050Z,71.10
2018-03-02T07:56:54.772Z,71.00
2018-03-02T07:59:23.277Z,72.10
2018-03-02T08:01:51.015Z,72.10
2018-03-02T08:04:19.528Z,71.10
2018-03-02T08:06:47.255Z,71.10
2018-03-02T08:09:15.731Z,69.60
2018-03-02T08:11:44.172Z,69.80
2018-03-02T08:14:11.895Z,69.70
2018-03-02T08:16:39.559Z,69.80
2018-03-02T08:19:07.270Z,69.80
2018-03-02T08:21:35.715Z,69.20
2018-03-02T08:24:03.436Z,69.20
2018-03-02T08:26:31.099Z,68.40
2018-03-02T08:28:58.807Z,68.30
2018-03-02T08:31:26.470Z,68.50
2018-03-02T08:33:54.179Z,68.80
2018-03-02T08:36:22.670Z,68.10
2018-03-02T08:38:50.435Z,68.20
2018-03-02T08:41:18.130Z,67.80
2018-03-02T08:43:45.835Z,68.10
2018-03-02T08:46:14.281Z,66.60
2018-03-02T08:48:41.987Z,66.50
2018-03-02T08:51:09.652Z,66.10
2018-03-02T08:53:37.363Z,66.10
2018-03-02T08:56:05.033Z,66.60
2018-03-02T08:58:33.471Z,66.00
2018-03-02T09:01:01.216Z,66.00
2018-03-02T09:03:28.922Z,66.80
2018-03-02T09:05:56.627Z,66.30
2018-03-02T09:08:24.279Z,66.60
2018-03-02T09:10:51.986Z,64.70
2018-03-02T09:13:20.460Z,65.30
2018-03-02T09:15:48.392Z,65.20
2018-03-02T09:18:16.063Z,64.60
2018-03-02T09:20:43.788Z,64.30
2018-03-02T09:23:12.224Z,64.50
2018-03-02T09:25:39.968Z,64.50
2018-03-02T09:28:07.663Z,63.70
2018-03-02T09:30:35.387Z,64.20
2018-03-02T09:33:03.050Z,63.50
2018-03-02T09:35:30.760Z,63.50
2018-03-02T09:37:59.293Z,62.60
2018-03-02T09:40:27.032Z,62.60
2018-03-02T09:42:54.695Z,61.90
2018-03-02T09:45:22.403Z,62.80
2018-03-02T09:47:50.070Z,61.50
2018-03-02T09:50:17.816Z,62.30
2018-03-02T09:52:45.482Z,62.10
2018-03-02T09:55:13.143Z,61.70
2018-03-02T09:57:40.883Z,61.50
2018-03-02T10:00:08.556Z,60.80
2018-03-02T10:02:36.296Z,60.00
2018-03-02T10:05:04.002Z,59.90
2018-03-02T10:07:32.471Z,59.60
2018-03-02T10:10:00.135Z,59.50
2018-03-02T10:12:28.603Z,60.00
2018-03-02T10:14:56.284Z,59.40
2018-03-02T10:17:24.758Z,60.10
2018-03-02T10:19:53.218Z,59.80
2018-03-02T10:22:20.927Z,59.60
2018-03-02T10:24:48.582Z,58.70
2018-03-02T10:27:16.295Z,58.80
2018-03-02T10:29:43.963Z,58.50
2018-03-02T10:32:11.688Z,57.30
2018-03-02T10:34:39.355Z,57.40
2018-03-02T10:37:07.016Z,58.10
2018-03-02T10:39:34.723Z,58.20
2018-03-02T10:42:03.158Z,55.80
2018-03-02T10:44:30.880Z,55.80
2018-03-02T10:46:58.542Z,56.30
2018-03-02T10:49:26.243Z,56.60
2018-03-02T10:51:53.915Z,55.40
2018-03-02T10:54:21.623Z,56.20
2018-03-02T10:56:49.290Z,56.40
2018-03-02T10:59:16.999Z,55.90
2018-03-02T11:01:50.475Z,55.50
2018-03-02T11:04:18.187Z,56.00
2018-03-02T11:06:45.859Z,55.80
2018-03-02T11:09:13.586Z,55.40
2018-03-02T11:11:42.015Z,53.70
2018-03-02T11:14:09.790Z,53.60
2018-03-02T11:16:37.486Z,53.70
2018-03-02T11:19:06.028Z,54.10
2018-03-02T11:21:33.724Z,54.00
2018-03-02T11:24:02.191Z,54.20
2018-03-02T11:26:29.854Z,54.20
2018-03-02T11:28:58.380Z,53.70
2018-03-02T11:31:26.090Z,54.10
2018-03-02T11:33:53.818Z,53.90
2018-03-02T11:36:21.569Z,53.50
2018-03-02T11:38:49.311Z,53.60
2018-03-02T11:41:16.991Z,53.40
2018-03-02T11:43:44.696Z,52.50
2018-03-02T11:46:12.367Z,52.10
2018-03-02T11:48:40.839Z,52.30
2018-03-02T11:51:09.271Z,52.30
2018-03-02T11:53:37.011Z,52.20
2018-03-02T11:56:04.691Z,51.90
2018-03-02T11:58:32.398Z,51.00
2018-03-02T12:01:00.942Z,51.20
2018-03-02T12:03:28.859Z,51.20
2018-03-02T12:05:56.541Z,51.10
2018-03-02T12:08:24.263Z,50.50
2018-03-02T12:10:52.744Z,50.50
2018-03-02T12:13:21.190Z,51.20
2018-03-02T12:15:48.910Z,51.10
2018-03-02T12:18:16.579Z,50.70
2018-03-02T12:20:44.368Z,50.50
2018-03-02T12:23:12.027Z,50.30
2018-03-02T12:25:39.730Z,49.50
2018-03-02T12:28:08.157Z,50.40
2018-03-02T12:30:35.871Z,50.40
2018-03-02T12:33:03.535Z,49.60
2018-03-02T12:35:31.265Z,50.20
2018-03-02T12:37:59.138Z,50.90
2018-03-02T12:40:27.617Z,50.60
2018-03-02T12:42:56.047Z,49.40
2018-03-02T12:45:23.767Z,49.40
2018-03-02T12:47:52.197Z,49.20
2018-03-02T12:50:19.915Z,49.10
2018-03-02T12:52:47.569Z,49.60
2018-03-02T12:55:15.323Z,49.60
2018-03-02T12:57:43.743Z,49.60
2018-03-02T13:00:12.219Z,50.80
2018-03-02T13:02:39.878Z,50.30
2018-03-02T13:05:07.579Z,49.80
2018-03-02T13:07:35.362Z,49.90
2018-03-02T13:10:03.874Z,49.70
2018-03-02T13:12:31.538Z,49.60
2018-03-02T13:14:59.395Z,50.00
2018-03-02T13:17:27.060Z,49.50
2018-03-02T13:19:54.768Z,49.50
2018-03-02T13:22:35.126Z,49.40
2018-03-02T13:25:03.611Z,48.40
2018-03-02T13:27:43.859Z,47.50
2018-03-02T13:30:12.367Z,48.20
2018-03-02T13:32:40.027Z,47.50
2018-03-02T13:35:11.713Z,47.40
2018-03-02T13:37:39.378Z,48.00
2018-03-02T13:40:19.703Z,48.10
2018-03-02T13:42:47.456Z,48.00
2018-03-02T13:45:15.914Z,47.90
2018-03-02T13:50:56.260Z,47.40
2018-03-02T13:53:23.922Z,48.80
2018-03-02T13:55:51.640Z,49.00
2018-03-02T13:58:19.353Z,48.90
2018-03-02T14:00:47.070Z,48.40
2018-03-02T14:03:26.554Z,47.50
2018-03-02T14:05:55.030Z,49.30
2018-03-02T14:08:23.479Z,48.80
2018-03-02T14:10:51.184Z,48.70
2018-03-02T14:13:19.647Z,48.30
2018-03-02T14:15:48.128Z,48.40
2018-03-02T14:18:16.598Z,49.30
2018-03-02T14:20:44.307Z,49.30
2018-03-02T14:23:11.979Z,49.50
2018-03-02T14:25:39.748Z,49.10
2018-03-02T14:28:07.418Z,49.50
2018-03-02T14:30:35.138Z,48.30
2018-03-02T14:33:02.812Z,47.50
2018-03-02T14:35:30.519Z,46.90
2018-03-02T14:37:58.179Z,47.00
2018-03-02T14:40:25.896Z,46.90
2018-03-02T14:42:53.555Z,46.90
2018-03-02T14:45:21.263Z,46.60
2018-03-02T14:47:48.926Z,47.60
2018-03-02T14:50:17.416Z,47.40
2018-03-02T14:52:45.112Z,47.40
2018-03-02T14:55:12.791Z,47.30
2018-03-02T14:57:40.500Z,46.50
2018-03-02T15:00:08.186Z,46.10
2018-03-02T15:02:35.889Z,46.50
2018-03-02T15:05:03.621Z,46.60
2018-03-02T15:07:32.147Z,46.70
2018-03-02T15:10:00.602Z,46.00
2018-03-02T15:12:28.315Z,46.00
2018-03-02T15:14:55.975Z,46.90
2018-03-02T15:17:23.687Z,47.40
2018-03-02T15:19:51.390Z,47.10
2018-03-02T15:22:19.090Z,47.20
2018-03-02T15:24:46.759Z,46.60
2018-03-02T15:27:14.464Z,46.20
2018-03-02T15:29:42.135Z,46.10
2018-03-02T15:32:09.844Z,46.60
2018-03-02T15:34:37.502Z,47.00
2018-03-02T15:37:05.211Z,47.00
2018-03-02T15:39:32.880Z,46.60
2018-03-02T15:42:00.649Z,47.00
2018-03-02T15:44:28.312Z,46.50
2018-03-02T15:46:56.061Z,46.90
2018-03-02T15:49:23.741Z,46.90
2018-03-02T15:51:51.450Z,46.80
2018-03-02T15:54:19.188Z,47.20
2018-03-02T15:56:46.896Z,47.90
2018-03-02T15:59:14.557Z,48.00
2018-03-02T16:01:42.275Z,47.60
2018-03-02T16:04:09.943Z,48.30
2018-03-02T16:06:38.455Z,47.50
2018-03-02T16:09:06.122Z,47.30
2018-03-02T16:11:33.832Z,48.10
2018-03-02T16:14:01.552Z,48.00
2018-03-02T16:16:29.215Z,48.10
2018-03-02T16:18:57.683Z,48.50
2018-03-02T16:21:25.379Z,48.50
2018-03-02T16:23:53.087Z,49.10
2018-03-02T16:26:20.753Z,48.80
2018-03-02T16:28:48.458Z,48.70
2018-03-02T16:31:16.172Z,49.10
2018-03-02T16:33:43.906Z,48.80
2018-03-02T16:36:12.328Z,48.70
2018-03-02T16:38:40.084Z,48.70
2018-03-02T16:41:07.775Z,49.30
2018-03-02T16:43:35.486Z,49.40
2018-03-02T16:46:03.154Z,49.10
2018-03-02T16:48:30.860Z,49.10
2018-03-02T16:50:58.598Z,50.20
2018-03-02T16:53:26.339Z,50.10
2018-03-02T16:55:54.008Z,50.10
2018-03-02T16:58:21.715Z,50.70
2018-03-02T17:00:50.151Z,50.70
2018-03-02T17:03:17.857Z,50.60
2018-03-02T17:05:46.293Z,51.10
2018-03-02T17:08:14.046Z,51.10
2018-03-02T17:10:41.715Z,51.00
2018-03-02T17:13:09.377Z,50.90
2018-03-02T17:15:37.099Z,51.30
2018-03-02T17:18:04.771Z,51.70
2018-03-02T17:20:32.479Z,51.30
2018-03-02T17:23:00.143Z,51.60
2018-03-02T17:25:28.614Z,52.30
2018-03-02T17:27:56.281Z,52.00
2018-03-02T17:30:23.990Z,52.00
2018-03-02T17:32:51.661Z,52.10
2018-03-02T17:35:19.367Z,51.90
2018-03-02T17:37:47.801Z,51.80
2018-03-02T17:40:15.503Z,51.60
2018-03-02T17:42:43.944Z,52.50
2018-03-02T17:45:11.675Z,52.50
2018-03-02T17:47:39.335Z,52.70
2018-03-02T17:50:07.044Z,52.00
2018-03-02T17:52:34.710Z,52.40
2018-03-02T17:55:02.467Z,52.60
2018-03-02T17:57:30.154Z,52.90
2018-03-02T17:59:58.625Z,53.10
2018-03-02T18:02:27.054Z,52.50
2018-03-02T18:04:54.758Z,52.50
2018-03-02T18:07:23.177Z,53.00
2018-03-02T18:09:50.883Z,53.00
2018-03-02T18:12:18.589Z,52.80
2018-03-02T18:14:46.295Z,52.40
2018-03-02T18:17:14.005Z,52.10
2018-03-02T18:19:41.671Z,52.20
2018-03-02T18:22:09.383Z,52.50
2018-03-02T18:24:37.060Z,52.80
2018-03-02T18:27:04.799Z,52.80
2018-03-02T18:29:32.460Z,52.70
2018-03-02T18:32:00.668Z,52.60
2018-03-02T18:34:28.901Z,52.40
2018-03-02T18:36:57.041Z,53.00
2018-03-02T18:39:28.017Z,54.30
2018-03-02T18:41:56.461Z,54.10
2018-03-02T18:44:25.360Z,53.80
2018-03-02T18:46:55.216Z,54.40
2018-03-02T18:49:24.348Z,54.30
2018-03-02T18:51:53.710Z,53.90
2018-03-02T18:54:22.218Z,53.70
2018-03-02T18:56:50.927Z,54.50
2018-03-02T18:59:20.429Z,54.50
2018-03-02T19:01:49.112Z,54.50
2018-03-02T19:04:18.586Z,54.80
2018-03-02T19:06:47.128Z,55.20
2018-03-02T19:09:16.401Z,53.80
2018-03-02T19:11:44.191Z,54.40
2018-03-02T19:14:13.479Z,54.50
2018-03-02T19:16:42.032Z,54.50
2018-03-02T19:19:11.004Z,54.80
2018-03-02T19:21:38.713Z,54.70
2018-03-02T19:24:07.146Z,54.60
2018-03-02T19:26:34.906Z,54.60
2018-03-02T19:29:02.603Z,54.30
2018-03-02T19:31:30.315Z,54.50
2018-03-02T19:33:57.974Z,54.80
2018-03-02T19:36:25.634Z,54.80
2018-03-02T19:38:53.356Z,55.20
2018-03-02T19:41:21.789Z,55.60
2018-03-02T19:43:49.494Z,55.60
2018-03-02T19:46:17.932Z,55.70
2018-03-02T19:48:45.642Z,55.70
2018-03-02T19:51:14.076Z,55.60
2018-03-02T19:53:41.791Z,55.60
2018-03-02T19:56:09.471Z,55.50
2018-03-02T19:58:37.183Z,55.60
2018-03-02T20:01:05.619Z,56.00
2018-03-02T20:03:33.323Z,56.00
2018-03-02T20:06:02.228Z,56.10
2018-03-02T20:08:29.933Z,56.10
2018-03-02T20:10:57.661Z,56.70
2018-03-02T20:13:25.371Z,57.50
2018-03-02T20:15:53.040Z,58.00
2018-03-02T20:18:20.747Z,57.90
2018-03-02T20:20:48.462Z,57.70
2018-03-02T20:23:17.034Z,62.20
2018-03-02T20:25:44.708Z,62.10
2018-03-02T20:28:13.204Z,65.80
2018-03-02T20:30:41.679Z,68.00
2018-03-02T20:33:10.174Z,71.30
2018-03-02T20:35:37.859Z,71.30
2018-03-02T20:38:05.599Z,74.60
2018-03-02T20:40:33.283Z,80.90
2018-03-02T20:43:00.998Z,86.20
2018-03-02T20:45:29.483Z,94.90
2018-03-02T20:47:57.978Z,97.00
2018-03-02T20:50:25.699Z,97.00
2018-03-02T20:52:53.379Z,99.50
2018-03-02T20:55:21.864Z,99.90
2018-03-02T20:57:49.529Z,99.90
2018-03-02T21:00:17.298Z,99.90
2018-03-02T21:02:45.025Z,99.90
2018-03-02T21:05:12.772Z,99.90
2018-03-02T21:07:40.444Z,99.90
2018-03-02T21:10:08.186Z,99.90
2018-03-02T21:12:35.862Z,99.90
2018-03-02T21:15:04.401Z,99.90
2018-03-02T21:17:32.103Z,99.90
2018-03-02T21:19:59.811Z,99.90
2018-03-02T21:22:27.484Z,99.90
2018-03-02T21:24:55.196Z,99.90
2018-03-02T21:27:23.623Z,99.90
2018-03-02T21:29:51.335Z,99.90
2018-03-02T21:32:19.771Z,99.90
2018-03-02T21:34:47.484Z,99.90
2018-03-02T21:37:15.148Z,99.90
2018-03-02T21:39:42.871Z,99.90
2018-03-02T21:42:10.543Z,99.90
2018-03-02T21:44:39.018Z,99.90
2018-03-02T21:47:06.683Z,99.90
2018-03-02T21:49:35.110Z,99.90
2018-03-02T21:52:02.867Z,99.90
2018-03-02T21:54:30.527Z,99.90
2018-03-02T21:56:58.243Z,99.90
2018-03-02T21:59:26.671Z,99.90
2018-03-02T22:01:54.408Z,99.90
2018-03-02T22:04:22.124Z,99.90
2018-03-02T22:06:49.888Z,99.90
2018-03-02T22:09:17.566Z,99.90
2018-03-02T22:11:46.057Z,99.90
2018-03-02T22:14:13.754Z,99.90
2018-03-02T22:16:41.471Z,99.90
2018-03-02T22:19:09.903Z,99.90
2018-03-02T22:21:37.611Z,99.90
2018-03-02T22:24:06.050Z,99.90
2018-03-02T22:26:33.755Z,99.90
2018-03-02T22:29:01.427Z,99.90
2018-03-02T22:31:29.986Z,99.90
2018-03-02T22:33:58.419Z,99.90
2018-03-02T22:36:26.118Z,99.90
2018-03-02T22:38:54.548Z,99.90
2018-03-02T22:41:22.251Z,99.90
2018-03-02T22:43:50.679Z,99.90
2018-03-02T22:46:18.395Z,99.90
2018-03-02T22:48:46.824Z,99.90
2018-03-02T22:51:14.491Z,99.90
2018-03-02T22:53:42.205Z,99.90
2018-03-02T22:56:09.866Z,99.90
2018-03-02T22:58:37.568Z,99.90
2018-03-02T23:01:05.236Z,99.90
2018-03-02T23:03:32.952Z,99.90
2018-03-02T23:06:00.618Z,99.90
2018-03-02T23:08:28.330Z,99.90
2018-03-02T23:10:55.987Z,99.90
2018-03-02T23:13:23.691Z,99.90
2018-03-02T23:15:51.354Z,99.90
2018-03-02T23:18:19.086Z,99.90
2018-03-02T23:20:47.514Z,99.90
2018-03-02T23:23:15.216Z,99.90
2018-03-02T23:25:42.883Z,99.90
2018-03-02T23:28:11.351Z,99.90
2018-03-02T23:30:39.011Z,99.90
2018-03-02T23:33:06.717Z,99.90
2018-03-02T23:35:34.382Z,99.90
2018-03-02T23:38:02.099Z,99.90
2018-03-02T23:40:30.530Z,99.90
2018-03-02T23:42:58.239Z,99.90
2018-03-02T23:45:26.667Z,99.90
2018-03-02T23:47:54.428Z,99.90
2018-03-02T23:50:22.114Z,99.90
2018-03-02T23:52:49.836Z,99.90
2018-03-02T23:55:17.503Z,99.90
2018-03-02T23:57:45.167Z,99.90
